Time;durP1;ratioP1;P1;durP2;ratioP2;P2;SDS_P1;SDS_P2;PMS_P1;PMS_P2;Temp;Humidity;BMP_temperature;BMP_pressure;BME280_temperature;BME280_humidity;BME280_pressure;Samples;Min_cycle;Max_cycle;Signal;HPM_P1;HPM_P2
2022/06/06 00:02:07;;;;;;;3.93;1.70;;;12.50;99.90;;;;;;5128700;27;20763;-76
2022/06/06 00:04:35;;;;;;;2.70;1.47;;;12.50;99.90;;;;;;5121358;27;20288;-76
2022/06/06 00:07:03;;;;;;;4.00;1.67;;;12.50;99.90;;;;;;5120411;27;20280;-76
2022/06/06 00:09:30;;;;;;;2.93;1.33;;;12.40;99.90;;;;;;5113715;28;20736;-76
2022/06/06 00:11:58;;;;;;;3.00;1.60;;;12.40;99.90;;;;;;5134818;27;20225;-76
2022/06/06 00:14:26;;;;;;;3.27;1.73;;;12.40;99.90;;;;;;5132924;27;20284;-76
2022/06/06 00:16:53;;;;;;;2.93;1.70;;;12.30;99.90;;;;;;5101738;27;20230;-75
2022/06/06 00:19:22;;;;;;;3.03;1.80;;;12.30;99.90;;;;;;5107364;27;20759;-76
2022/06/06 00:21:49;;;;;;;2.83;1.73;;;12.20;99.90;;;;;;5127452;27;20296;-76
2022/06/06 00:24:16;;;;;;;3.07;1.80;;;12.20;99.90;;;;;;5129747;27;20283;-76
2022/06/06 00:26:43;;;;;;;5.40;2.00;;;12.20;99.90;;;;;;5121416;27;20224;-76
2022/06/06 00:29:14;;;;;;;4.43;1.90;;;12.10;99.90;;;;;;5119882;27;20280;-76
2022/06/06 00:37:14;;;;;;;2.27;1.87;;;12.00;99.90;;;;;;5122837;27;20335;-76
2022/06/06 00:39:42;;;;;;;2.33;1.70;;;12.00;99.90;;;;;;5114567;28;20609;-76
2022/06/06 00:42:16;;;;;;;3.13;2.10;;;12.00;99.90;;;;;;5114822;28;20239;-76
2022/06/06 00:44:43;;;;;;;3.00;1.90;;;11.90;99.90;;;;;;5117215;27;20276;-76
2022/06/06 00:47:18;;;;;;;3.37;2.63;;;11.80;99.90;;;;;;5102412;27;20237;-75
2022/06/06 00:49:50;;;;;;;4.33;2.20;;;11.90;99.90;;;;;;5110733;27;20291;-76
2022/06/06 00:52:22;;;;;;;4.23;2.50;;;11.80;99.90;;;;;;5093984;28;20285;-75
2022/06/06 00:54:51;;;;;;;3.30;2.07;;;11.70;99.90;;;;;;5104004;27;20288;-75
2022/06/06 00:57:22;;;;;;;3.00;1.93;;;11.70;99.90;;;;;;5134188;27;20621;-76
2022/06/06 00:59:50;;;;;;;2.77;2.10;;;11.70;99.90;;;;;;5116401;27;20243;-76
2022/06/06 01:02:18;;;;;;;4.07;2.27;;;11.60;99.90;;;;;;5117842;27;20216;-76
2022/06/06 01:04:47;;;;;;;3.87;2.10;;;11.60;99.90;;;;;;5134872;27;20295;-76
2022/06/06 01:07:14;;;;;;;4.53;2.00;;;11.50;99.90;;;;;;5114231;27;20204;-75
2022/06/06 01:09:44;;;;;;;5.67;2.40;;;11.50;99.90;;;;;;5113833;28;20618;-76
2022/06/06 01:12:15;;;;;;;3.03;2.13;;;11.50;99.90;;;;;;5113935;28;20229;-75
2022/06/06 01:14:46;;;;;;;3.53;2.40;;;11.50;99.90;;;;;;5113252;28;20300;-76
2022/06/06 01:17:27;;;;;;;3.10;1.93;;;11.50;99.90;;;;;;5113070;28;20312;-76
2022/06/06 01:20:26;;;;;;;4.20;2.30;;;11.50;99.90;;;;;;5118889;27;20213;-76
2022/06/06 01:23:16;;;;;;;3.70;2.30;;;11.50;99.90;;;;;;5107195;28;20240;-75
2022/06/06 01:26:31;;;;;;;4.63;2.23;;;11.50;99.90;;;;;;5122573;27;20683;-76
2022/06/06 01:29:04;;;;;;;6.03;2.20;;;11.50;99.90;;;;;;5030949;28;20200;-76
2022/06/06 01:31:39;;;;;;;4.83;2.60;;;11.50;99.90;;;;;;5051765;28;20652;-75
2022/06/06 01:34:08;;;;;;;3.10;2.33;;;11.50;99.90;;;;;;5058889;28;20696;-76
2022/06/06 01:36:36;;;;;;;4.67;2.50;;;11.50;99.90;;;;;;5070125;28;20721;-76
2022/06/06 01:39:07;;;;;;;3.03;2.40;;;11.40;99.90;;;;;;5058754;28;20210;-76
2022/06/06 01:41:47;;;;;;;2.40;2.20;;;11.40;99.90;;;;;;5039592;28;20236;-76
2022/06/06 01:44:25;;;;;;;5.37;2.30;;;11.40;99.90;;;;;;5045398;28;20385;-76
2022/06/06 01:46:52;;;;;;;2.90;2.40;;;11.30;99.90;;;;;;5049549;28;20382;-76
2022/06/06 01:49:23;;;;;;;5.57;2.87;;;11.30;99.90;;;;;;5049820;28;20302;-75
2022/06/06 01:52:00;;;;;;;3.57;2.50;;;11.40;99.90;;;;;;5054418;28;20202;-76
2022/06/06 01:54:27;;;;;;;3.70;2.57;;;11.40;99.90;;;;;;5062502;28;20707;-76
2022/06/06 01:56:54;;;;;;;4.70;3.00;;;11.40;99.90;;;;;;5049407;28;20200;-76
2022/06/06 01:59:22;;;;;;;2.97;2.57;;;11.30;99.90;;;;;;5056767;28;20710;-76
2022/06/06 02:01:49;;;;;;;4.33;2.40;;;11.30;99.90;;;;;;5059784;28;20243;-76
2022/06/06 02:04:18;;;;;;;4.80;2.70;;;11.30;99.90;;;;;;5068602;28;20225;-76
2022/06/06 02:06:45;;;;;;;4.57;2.87;;;11.30;99.90;;;;;;5121052;27;20200;-76
2022/06/06 02:09:12;;;;;;;3.27;2.50;;;11.30;99.90;;;;;;5126385;27;20375;-75
2022/06/06 02:11:40;;;;;;;4.90;2.70;;;11.20;99.90;;;;;;5100693;28;20202;-76
2022/06/06 02:14:09;;;;;;;4.87;2.70;;;11.20;99.90;;;;;;5095175;28;20207;-76
2022/06/06 02:16:38;;;;;;;5.90;2.93;;;11.10;99.90;;;;;;5112322;28;20236;-75
2022/06/06 02:19:05;;;;;;;4.73;2.60;;;11.10;99.90;;;;;;5114122;27;20644;-75
2022/06/06 02:21:32;;;;;;;5.17;2.43;;;11.00;99.90;;;;;;5117871;27;20237;-75
2022/06/06 02:23:59;;;;;;;5.80;2.80;;;11.00;99.90;;;;;;5128041;27;20223;-75
2022/06/06 02:26:26;;;;;;;2.63;2.43;;;10.90;99.90;;;;;;5133068;27;20231;-75
2022/06/06 02:28:53;;;;;;;7.60;2.57;;;10.90;99.90;;;;;;5124106;27;20198;-76
2022/06/06 02:31:20;;;;;;;5.97;2.63;;;10.90;99.90;;;;;;5133137;27;20200;-76
2022/06/06 02:33:48;;;;;;;5.20;2.60;;;10.80;99.90;;;;;;5126955;27;20282;-76
2022/06/06 02:36:15;;;;;;;4.07;2.60;;;10.80;99.90;;;;;;5120091;27;20669;-76
2022/06/06 02:38:42;;;;;;;5.50;2.70;;;10.70;99.90;;;;;;5108529;27;20219;-76
2022/06/06 02:41:09;;;;;;;3.10;2.40;;;10.70;99.90;;;;;;5105826;27;20305;-76
2022/06/06 02:43:37;;;;;;;4.63;2.43;;;10.70;99.90;;;;;;5090903;28;20258;-76
2022/06/06 02:46:05;;;;;;;3.10;2.70;;;10.60;99.90;;;;;;5111372;28;20304;-75
2022/06/06 02:48:32;;;;;;;3.87;2.83;;;10.70;99.90;;;;;;5111809;28;20288;-76
2022/06/06 02:51:02;;;;;;;3.50;2.83;;;10.70;99.90;;;;;;5118833;27;20280;-76
2022/06/06 02:53:29;;;;;;;4.17;2.80;;;10.60;99.90;;;;;;5129622;27;20193;-76
2022/06/06 02:55:57;;;;;;;3.63;2.60;;;10.50;99.90;;;;;;5119395;27;20289;-76
2022/06/06 02:58:26;;;;;;;3.83;2.53;;;10.50;99.90;;;;;;5129025;27;20229;-76
2022/06/06 03:00:59;;;;;;;4.20;2.90;;;10.50;99.90;;;;;;5132344;27;20320;-76
2022/06/06 03:03:26;;;;;;;6.00;2.57;;;10.60;99.90;;;;;;5129305;27;20259;-76
2022/06/06 03:06:08;;;;;;;5.77;2.80;;;10.60;99.90;;;;;;5112109;28;20241;-76
2022/06/06 03:09:01;;;;;;;5.13;2.50;;;10.50;99.90;;;;;;5112013;28;20201;-76
2022/06/06 03:11:55;;;;;;;4.23;2.80;;;10.50;99.90;;;;;;5108001;28;20193;-76
2022/06/06 03:14:43;;;;;;;4.80;2.87;;;10.50;99.90;;;;;;5111401;28;20736;-76
2022/06/06 03:20:47;;;;;;;4.40;2.10;;;10.20;99.90;;;;;;5110919;28;20280;-75
2022/06/06 03:23:56;;;;;;;7.50;2.40;;;10.00;99.90;;;;;;5111885;28;20321;-75
2022/06/06 03:26:37;;;;;;;5.10;2.33;;;9.80;99.90;;;;;;5033714;28;20285;-76
2022/06/06 03:29:15;;;;;;;3.73;2.27;;;9.80;99.90;;;;;;5048438;28;20285;-76
2022/06/06 03:31:54;;;;;;;4.73;2.50;;;9.70;99.90;;;;;;5048833;28;20202;-76
2022/06/06 03:34:28;;;;;;;3.40;2.47;;;9.60;99.90;;;;;;5065119;28;20200;-76
2022/06/06 03:37:06;;;;;;;3.93;2.40;;;9.60;99.90;;;;;;5068719;28;20290;-75
2022/06/06 03:39:44;;;;;;;4.13;2.63;;;9.70;99.90;;;;;;5068627;28;20232;-76
2022/06/06 03:42:21;;;;;;;5.00;2.97;;;9.60;99.90;;;;;;5028655;28;20283;-75
2022/06/06 03:45:02;;;;;;;4.93;2.97;;;9.50;99.90;;;;;;5052272;28;20329;-76
2022/06/06 03:47:42;;;;;;;3.47;2.60;;;9.50;99.90;;;;;;5070242;28;20280;-76
2022/06/06 03:50:21;;;;;;;5.03;3.20;;;9.40;99.90;;;;;;5038034;28;20666;-75
2022/06/06 03:52:51;;;;;;;5.17;2.77;;;9.40;99.90;;;;;;5032391;28;20223;-76
2022/06/06 03:55:30;;;;;;;4.13;3.07;;;9.30;99.90;;;;;;5039697;28;20227;-75
2022/06/06 03:57:57;;;;;;;7.00;3.20;;;9.30;99.90;;;;;;5052243;28;20200;-76
2022/06/06 04:00:25;;;;;;;4.47;3.30;;;9.30;99.90;;;;;;5096946;27;20286;-75
2022/06/06 04:02:55;;;;;;;5.53;3.10;;;9.20;99.90;;;;;;5119727;27;20262;-75
2022/06/06 04:05:23;;;;;;;6.30;3.57;;;9.10;99.90;;;;;;5113812;27;20240;-75
2022/06/06 04:07:50;;;;;;;4.60;3.00;;;9.20;99.90;;;;;;5119758;27;20210;-76
2022/06/06 04:10:18;;;;;;;4.03;3.03;;;9.10;99.90;;;;;;5124391;27;20297;-75
2022/06/06 04:13:06;;;;;;;3.67;3.20;;;9.10;99.90;;;;;;5134986;27;20600;-75
2022/06/06 04:15:52;;;;;;;3.37;2.77;;;9.10;99.90;;;;;;5096131;28;20239;-76
2022/06/06 04:18:32;;;;;;;3.60;2.60;;;9.00;99.90;;;;;;5093999;28;20289;-76
2022/06/06 04:21:13;;;;;;;4.70;3.10;;;9.10;99.90;;;;;;5094433;28;20229;-75
2022/06/06 04:23:58;;;;;;;3.27;2.90;;;9.10;99.90;;;;;;5114406;28;20621;-75
2022/06/06 04:26:32;;;;;;;6.57;3.03;;;9.20;99.90;;;;;;5106011;28;20686;-75
2022/06/06 04:29:06;;;;;;;3.97;3.13;;;9.40;99.90;;;;;;5141379;27;20278;-76
2022/06/06 04:31:44;;;;;;;6.67;3.27;;;9.60;99.90;;;;;;5122045;27;20709;-75
2022/06/06 04:34:17;;;;;;;5.43;3.33;;;9.80;99.90;;;;;;5122672;27;20217;-75
2022/06/06 04:36:53;;;;;;;5.93;3.30;;;9.90;99.90;;;;;;5121576;27;20244;-75
2022/06/06 04:39:26;;;;;;;6.43;3.00;;;10.00;99.90;;;;;;5117892;27;20288;-75
2022/06/06 04:42:04;;;;;;;4.47;3.00;;;9.90;99.90;;;;;;5117614;27;20286;-75
2022/06/06 04:44:39;;;;;;;5.17;2.97;;;10.00;99.90;;;;;;5127490;27;20260;-75
2022/06/06 04:47:13;;;;;;;5.00;3.73;;;10.10;99.90;;;;;;5117798;27;20288;-75
2022/06/06 04:49:40;;;;;;;6.93;3.63;;;10.20;99.90;;;;;;5111284;28;20281;-75
2022/06/06 04:52:08;;;;;;;3.93;3.00;;;10.20;99.90;;;;;;5113839;28;20734;-75
2022/06/06 04:54:39;;;;;;;5.07;3.20;;;10.30;99.90;;;;;;5113891;28;20201;-75
2022/06/06 04:57:08;;;;;;;4.00;3.03;;;10.30;99.90;;;;;;5123938;27;20670;-76
2022/06/06 04:59:38;;;;;;;4.33;3.03;;;10.40;99.90;;;;;;5128824;27;20281;-76
2022/06/06 05:02:06;;;;;;;5.20;3.10;;;10.50;99.90;;;;;;5133402;27;20282;-76
2022/06/06 05:04:32;;;;;;;4.60;3.30;;;10.60;99.90;;;;;;5127099;27;20289;-76
2022/06/06 05:07:31;;;;;;;4.77;3.30;;;10.70;99.90;;;;;;5121787;27;20282;-76
2022/06/06 05:10:24;;;;;;;5.60;3.37;;;10.80;99.90;;;;;;5119463;27;20291;-76
2022/06/06 05:13:29;;;;;;;3.60;2.73;;;10.90;99.90;;;;;;5134179;27;20236;-76
2022/06/06 05:16:11;;;;;;;7.47;3.07;;;11.10;99.90;;;;;;5073435;28;20325;-76
2022/06/06 05:18:54;;;;;;;5.30;3.13;;;11.20;99.90;;;;;;5107590;27;20202;-76
2022/06/06 05:21:37;;;;;;;6.63;3.10;;;11.40;99.90;;;;;;5134374;27;20291;-76
2022/06/06 05:24:33;;;;;;;6.40;2.97;;;11.60;99.90;;;;;;5112994;28;20310;-76
2022/06/06 05:27:17;;;;;;;5.10;3.20;;;11.90;99.90;;;;;;5113618;28;20202;-76
2022/06/06 05:30:06;;;;;;;4.10;2.60;;;12.60;99.90;;;;;;5112965;28;20289;-76
2022/06/06 05:32:51;;;;;;;3.83;2.17;;;13.70;99.90;;;;;;5109445;27;20229;-76
2022/06/06 05:35:28;;;;;;;3.90;2.57;;;14.50;99.90;;;;;;5112582;28;20197;-76
2022/06/06 05:38:07;;;;;;;2.80;1.93;;;14.90;99.90;;;;;;5112488;28;20680;-76
2022/06/06 05:40:38;;;;;;;4.67;2.23;;;14.90;99.90;;;;;;5116710;27;20285;-76
2022/06/06 05:43:23;;;;;;;4.30;2.30;;;15.30;99.90;;;;;;5112602;27;20248;-76
2022/06/06 05:46:04;;;;;;;3.70;2.07;;;15.40;99.90;;;;;;5114921;27;20245;-76
2022/06/06 05:48:46;;;;;;;3.37;1.80;;;15.90;99.90;;;;;;5125129;27;20273;-76
2022/06/06 05:51:23;;;;;;;3.57;1.80;;;16.90;99.90;;;;;;5131364;27;20287;-76
2022/06/06 05:54:07;;;;;;;3.07;1.80;;;17.60;99.90;;;;;;5112789;28;20236;-76
2022/06/06 05:56:53;;;;;;;5.03;2.03;;;16.70;99.90;;;;;;5112951;28;20691;-76
2022/06/06 05:59:46;;;;;;;2.83;1.67;;;15.30;99.90;;;;;;5092992;28;20308;-76
2022/06/06 06:02:37;;;;;;;4.93;2.07;;;14.40;99.90;;;;;;5099898;27;20245;-76
2022/06/06 06:05:20;;;;;;;6.03;2.13;;;14.00;99.90;;;;;;5097992;28;20300;-76
2022/06/06 06:08:06;;;;;;;3.53;1.80;;;15.10;99.90;;;;;;5132544;27;20657;-76
2022/06/06 06:10:41;;;;;;;3.80;1.80;;;16.80;99.90;;;;;;5131524;27;20220;-76
2022/06/06 06:13:29;;;;;;;3.83;1.70;;;17.60;99.90;;;;;;5133106;27;20239;-76
2022/06/06 06:15:59;;;;;;;2.72;1.60;;;18.50;99.90;;;;;;5116751;27;20257;-76
2022/06/06 06:18:33;;;;;;;3.17;1.50;;;19.40;99.90;;;;;;5112435;28;20236;-76
2022/06/06 06:21:04;;;;;;;2.80;1.48;;;19.70;99.90;;;;;;5119848;27;20617;-77
2022/06/06 06:23:37;;;;;;;4.10;1.83;;;19.10;99.90;;;;;;5112425;28;20645;-76
2022/06/06 06:26:06;;;;;;;3.63;1.40;;;19.00;99.90;;;;;;5094138;28;20198;-77
2022/06/06 06:28:36;;;;;;;3.08;1.60;;;20.20;99.90;;;;;;5122094;27;20293;-77
2022/06/06 06:31:19;;;;;;;3.83;1.45;;;21.30;99.90;;;;;;5132927;27;20203;-77
2022/06/06 06:34:03;;;;;;;3.42;1.25;;;21.80;99.90;;;;;;5123231;27;20313;-77
2022/06/06 06:36:43;;;;;;;4.47;1.40;;;21.40;99.90;;;;;;5111686;28;20208;-77
2022/06/06 06:39:32;;;;;;;3.72;1.48;;;22.00;99.90;;;;;;5112354;27;20615;-77
2022/06/06 06:42:14;;;;;;;3.22;1.20;;;22.60;99.90;;;;;;5126806;27;20225;-77
2022/06/06 06:44:47;;;;;;;3.25;1.20;;;23.50;99.90;;;;;;5111144;27;20753;-77
2022/06/06 06:47:18;;;;;;;3.03;1.33;;;24.00;99.90;;;;;;5112962;27;20218;-77
2022/06/06 06:49:50;;;;;;;6.22;1.42;;;24.30;99.90;;;;;;5127973;27;20284;-77
2022/06/06 06:52:33;;;;;;;2.45;1.30;;;23.80;99.90;;;;;;5111679;28;20217;-77
2022/06/06 06:55:09;;;;;;;5.53;1.35;;;24.10;99.90;;;;;;5124239;27;20231;-77
2022/06/06 06:57:57;;;;;;;2.95;1.20;;;25.00;99.90;;;;;;5120068;27;20278;-77
2022/06/06 07:00:25;;;;;;;3.22;1.40;;;25.30;99.90;;;;;;5121990;27;20273;-78
2022/06/06 07:09:07;;;;;;;2.65;1.17;;;21.40;99.90;;;;;;5112383;28;20201;-77
2022/06/06 07:11:49;;;;;;;2.38;1.20;;;21.30;99.90;;;;;;5111724;28;20720;-77
2022/06/06 07:14:30;;;;;;;4.75;1.70;;;22.40;99.90;;;;;;5110822;28;20588;-77
2022/06/06 07:16:59;;;;;;;3.00;1.20;;;22.20;99.90;;;;;;5101523;28;20253;-77
2022/06/06 07:19:33;;;;;;;2.78;1.20;;;23.70;99.90;;;;;;5112128;28;20284;-77
2022/06/06 07:22:03;;;;;;;2.42;1.20;;;24.90;99.90;;;;;;5123408;27;20197;-76
2022/06/06 07:24:32;;;;;;;3.25;1.20;;;26.00;99.90;;;;;;5136412;27;20221;-79
2022/06/06 07:27:02;;;;;;;1.65;0.90;;;25.40;99.90;;;;;;5130500;27;20274;-79
2022/06/06 07:29:29;;;;;;;2.88;0.90;;;25.30;99.90;;;;;;5121431;27;20205;-80
2022/06/06 07:32:14;;;;;;;3.75;1.30;;;24.50;99.90;;;;;;5122888;27;20225;-80
2022/06/06 07:34:55;;;;;;;2.65;1.00;;;23.60;99.90;;;;;;5132727;27;20228;-80
2022/06/06 07:37:33;;;;;;;4.68;0.82;;;23.40;99.90;;;;;;5119013;27;20664;-79
2022/06/06 07:40:15;;;;;;;4.43;1.02;;;24.00;99.90;;;;;;5121741;27;20669;-80
2022/06/06 07:43:13;;;;;;;1.95;0.65;;;25.30;99.90;;;;;;5121836;27;20292;-80
2022/06/06 07:45:44;;;;;;;1.88;0.60;;;26.60;99.90;;;;;;5118591;27;20759;-80
2022/06/06 07:48:31;;;;;;;1.95;0.68;;;26.70;99.90;;;;;;5120214;27;20224;-80
2022/06/06 07:51:06;;;;;;;2.35;0.63;;;25.90;99.90;;;;;;5135073;27;20193;-80
2022/06/06 07:53:48;;;;;;;3.28;0.80;;;24.90;99.90;;;;;;5119772;27;20228;-79
2022/06/06 07:56:24;;;;;;;3.05;0.80;;;23.50;99.90;;;;;;5122183;27;20193;-80
2022/06/06 07:58:59;;;;;;;1.02;0.57;;;24.60;99.90;;;;;;5102152;27;20279;-79
2022/06/06 08:01:37;;;;;;;2.03;0.77;;;25.20;99.90;;;;;;5135394;27;20288;-80
2022/06/06 08:04:14;;;;;;;2.58;0.75;;;25.70;99.90;;;;;;5135310;27;20766;-79
2022/06/06 08:06:50;;;;;;;2.25;0.85;;;24.70;99.90;;;;;;5135648;27;20284;-79
2022/06/06 08:09:48;;;;;;;3.03;0.82;;;24.40;99.90;;;;;;5132850;27;20200;-80
2022/06/06 08:12:34;;;;;;;2.08;0.70;;;24.60;99.90;;;;;;5113407;27;20731;-80
2022/06/06 08:15:13;;;;;;;2.03;0.60;;;25.90;99.90;;;;;;5113958;27;20537;-78
2022/06/06 08:17:57;;;;;;;2.63;0.60;;;25.90;99.90;;;;;;5100413;27;20320;-79
2022/06/06 08:20:32;;;;;;;2.53;0.82;;;26.20;99.90;;;;;;5109819;28;20300;-78
2022/06/06 08:23:02;;;;;;;2.10;0.70;;;27.00;99.90;;;;;;5107703;28;20288;-79
2022/06/06 08:25:30;;;;;;;2.63;0.70;;;25.50;99.90;;;;;;5113410;27;20605;-77
2022/06/06 08:28:00;;;;;;;1.70;0.80;;;24.60;99.90;;;;;;5114109;27;20204;-77
2022/06/06 08:30:26;;;;;;;2.83;0.73;;;24.90;99.90;;;;;;5107872;27;20280;-78
2022/06/06 08:32:54;;;;;;;1.45;0.60;;;26.00;99.90;;;;;;5110122;28;20280;-78
2022/06/06 08:35:23;;;;;;;2.95;0.80;;;26.50;99.90;;;;;;5112191;28;20296;-78
2022/06/06 08:38:07;;;;;;;1.60;0.60;;;26.90;99.90;;;;;;5109932;27;20605;-78
2022/06/06 08:40:51;;;;;;;3.10;0.88;;;25.20;99.90;;;;;;5109728;27;20288;-77
2022/06/06 08:43:29;;;;;;;2.28;0.68;;;25.60;99.90;;;;;;5112671;27;20292;-77
2022/06/06 08:46:13;;;;;;;2.17;0.80;;;26.40;99.90;;;;;;5111114;27;20650;-77
2022/06/06 08:48:48;;;;;;;2.78;0.80;;;27.00;99.90;;;;;;5107804;27;20228;-76
2022/06/06 08:51:23;;;;;;;3.45;1.60;;;27.60;99.90;;;;;;5111315;27;20312;-76
2022/06/06 08:54:27;;;;;;;2.72;0.80;;;27.20;99.90;;;;;;5109191;27;20669;-76
2022/06/06 08:57:18;;;;;;;4.30;0.63;;;25.40;99.90;;;;;;5108287;27;20320;-76
2022/06/06 09:00:17;;;;;;;2.83;0.88;;;23.30;99.90;;;;;;5109794;27;20237;-78
2022/06/06 09:03:15;;;;;;;1.80;0.60;;;24.80;99.90;;;;;;5109309;27;20241;-77
2022/06/06 09:06:29;;;;;;;2.40;0.65;;;26.10;99.90;;;;;;5114984;27;21159;-78
2022/06/06 09:09:32;;;;;;;2.25;0.70;;;28.00;99.90;;;;;;5108837;27;20274;-77
2022/06/06 09:12:28;;;;;;;2.53;0.88;;;28.60;91.70;;;;;;5108803;28;20300;-79
2022/06/06 09:15:24;;;;;;;2.58;0.60;;;27.50;76.70;;;;;;5111374;27;20225;-77
2022/06/06 09:18:25;;;;;;;2.40;0.60;;;27.20;70.40;;;;;;5111115;27;20238;-79
2022/06/06 09:21:15;;;;;;;1.80;0.60;;;25.20;86.10;;;;;;5108778;27;20229;-78
2022/06/06 09:24:19;;;;;;;1.05;0.50;;;23.60;93.50;;;;;;5110393;27;20237;-78
2022/06/06 09:27:02;;;;;;;2.38;0.70;;;23.90;99.60;;;;;;5111217;27;20232;-78
2022/06/06 09:30:02;;;;;;;2.20;0.63;;;24.10;95.30;;;;;;5113226;27;20204;-78
2022/06/06 09:33:06;;;;;;;3.22;0.73;;;27.20;71.10;;;;;;5109074;28;20280;-78
2022/06/06 09:35:46;;;;;;;1.08;0.57;;;28.00;66.50;;;;;;5111098;27;20280;-78
2022/06/06 09:38:16;;;;;;;1.67;0.80;;;27.80;32.40;;;;;;5110855;27;20228;-79
2022/06/06 09:40:58;;;;;;;2.42;0.60;;;26.30;33.40;;;;;;5109854;27;20229;-79
2022/06/06 09:43:35;;;;;;;1.23;0.50;;;27.40;34.80;;;;;;5108284;27;20282;-78
2022/06/06 09:46:34;;;;;;;1.65;0.85;;;28.60;28.60;;;;;;5108725;27;20251;-78
2022/06/06 09:49:30;;;;;;;1.42;0.80;;;29.80;13.60;;;;;;5108250;27;20702;-77
2022/06/06 09:52:24;;;;;;;2.25;0.90;;;27.60;11.80;;;;;;5107471;28;20205;-78
2022/06/06 09:59:04;;;;;;;0.98;0.57;;;26.20;60.30;;;;;;5090784;27;20212;-77
2022/06/06 10:02:19;;;;;;;2.83;1.10;;;26.40;33.30;;;;;;5046866;28;20278;-78
2022/06/06 10:05:28;;;;;;;1.50;0.70;;;28.40;31.30;;;;;;4947738;28;20306;-77
2022/06/06 10:08:25;;;;;;;1.70;0.77;;;27.60;20.50;;;;;;4951704;28;20290;-77
2022/06/06 10:11:29;;;;;;;5.20;2.20;;;25.90;35.20;;;;;;4949783;28;20763;-77
2022/06/06 10:14:08;;;;;;;2.88;1.50;;;25.00;57.70;;;;;;4946591;28;20202;-78
2022/06/06 10:16:48;;;;;;;4.30;1.58;;;25.50;59.80;;;;;;4952461;28;20714;-78
2022/06/06 10:19:39;;;;;;;1.40;0.90;;;25.40;58.40;;;;;;4946841;28;20202;-77
2022/06/06 10:22:35;;;;;;;4.95;1.50;;;25.50;60.70;;;;;;4949751;28;20302;-78
2022/06/06 10:25:15;;;;;;;2.92;1.52;;;24.90;66.00;;;;;;4951834;28;20222;-77
2022/06/06 10:28:03;;;;;;;4.00;2.67;;;24.60;72.70;;;;;;4949679;28;20289;-78
2022/06/06 10:30:40;;;;;;;4.97;2.70;;;23.90;63.90;;;;;;4944966;28;20321;-78
2022/06/06 10:33:38;;;;;;;6.82;1.70;;;24.60;65.00;;;;;;4949673;28;20202;-78
2022/06/06 10:36:29;;;;;;;4.05;1.38;;;25.90;69.10;;;;;;5024687;28;20203;-77
2022/06/06 10:39:37;;;;;;;6.90;6.20;;;26.70;34.70;;;;;;5108031;27;20257;-77
2022/06/06 10:42:25;;;;;;;4.70;1.50;;;25.30;51.30;;;;;;5106928;27;20289;-77
2022/06/06 10:45:08;;;;;;;4.40;1.38;;;25.40;56.50;;;;;;5110409;28;20232;-77
2022/06/06 10:47:50;;;;;;;3.00;0.90;;;24.10;56.00;;;;;;5108109;27;20685;-78
2022/06/06 10:50:24;;;;;;;6.53;3.90;;;22.80;87.60;;;;;;5107843;28;20221;-77
2022/06/06 10:53:15;;;;;;;3.30;1.48;;;22.90;88.30;;;;;;5129027;27;20703;-77
2022/06/06 10:56:19;;;;;;;3.20;1.25;;;23.50;76.80;;;;;;5110968;28;20520;-78
2022/06/06 10:59:13;;;;;;;3.83;1.40;;;24.20;71.90;;;;;;5099211;28;20201;-78
2022/06/06 11:02:26;;;;;;;2.03;1.15;;;23.80;71.90;;;;;;5100660;28;20193;-77
2022/06/06 11:05:30;;;;;;;2.00;0.95;;;23.10;70.50;;;;;;5126273;27;20237;-77
2022/06/06 11:08:42;;;;;;;2.53;0.70;;;22.80;83.10;;;;;;5125229;28;20280;-78
2022/06/06 11:11:50;;;;;;;2.80;0.80;;;22.50;90.70;;;;;;5048530;28;20623;-77
2022/06/06 11:14:28;;;;;;;1.70;0.60;;;22.60;96.50;;;;;;5048744;28;20285;-78
2022/06/06 11:17:35;;;;;;;2.35;0.77;;;22.60;96.90;;;;;;5036354;28;20317;-78
2022/06/06 11:20:41;;;;;;;3.00;0.85;;;22.70;95.80;;;;;;5061199;28;20227;-78
2022/06/06 11:23:16;;;;;;;1.88;0.63;;;22.90;94.10;;;;;;5057785;28;20658;-78
2022/06/06 11:25:57;;;;;;;2.22;0.93;;;23.10;85.90;;;;;;5057941;28;20289;-77
2022/06/06 11:28:54;;;;;;;1.65;0.63;;;23.00;80.20;;;;;;5051408;28;20238;-77
2022/06/06 11:31:51;;;;;;;1.55;0.60;;;23.00;83.30;;;;;;5026873;28;20223;-77
2022/06/06 11:35:04;;;;;;;1.60;0.70;;;23.20;91.00;;;;;;5059498;28;20852;-77
2022/06/06 11:38:18;;;;;;;4.93;2.38;;;23.30;76.90;;;;;;5053267;28;20663;-76
2022/06/06 11:41:15;;;;;;;3.25;1.75;;;23.90;88.80;;;;;;5058081;28;20231;-76
2022/06/06 11:44:11;;;;;;;2.30;1.23;;;23.10;91.50;;;;;;5060467;28;20791;-76
2022/06/06 11:47:25;;;;;;;1.83;0.65;;;22.20;95.20;;;;;;5103781;28;20225;-76
2022/06/06 11:50:31;;;;;;;2.47;1.35;;;21.70;99.90;;;;;;5040196;28;20660;-76
2022/06/06 11:53:35;;;;;;;4.13;0.88;;;23.00;99.90;;;;;;5032635;28;20238;-77
2022/06/06 11:56:16;;;;;;;2.67;0.90;;;23.50;86.00;;;;;;5041906;28;20399;-77
2022/06/06 11:59:18;;;;;;;2.97;0.90;;;22.10;92.50;;;;;;5052064;28;20278;-76
2022/06/06 12:02:10;;;;;;;2.38;1.10;;;21.90;99.90;;;;;;5033351;28;20288;-76
2022/06/06 12:05:09;;;;;;;1.38;0.80;;;23.60;97.10;;;;;;5042537;28;20280;-77
2022/06/06 12:08:02;;;;;;;1.80;1.00;;;24.30;82.40;;;;;;5036074;28;20211;-77
2022/06/06 12:10:35;;;;;;;1.65;0.80;;;25.10;79.30;;;;;;5019954;28;20735;-78
2022/06/06 12:13:35;;;;;;;1.13;0.80;;;25.20;64.10;;;;;;5015087;28;20300;-77
2022/06/06 12:16:16;;;;;;;2.28;0.70;;;24.30;67.70;;;;;;5014093;28;20274;-77
2022/06/06 12:19:10;;;;;;;3.58;0.88;;;23.80;71.70;;;;;;5027191;28;20211;-77
2022/06/06 12:22:18;;;;;;;1.45;0.60;;;23.80;77.60;;;;;;5014537;28;20215;-77
2022/06/06 12:25:12;;;;;;;2.72;0.98;;;23.70;86.20;;;;;;5047936;28;21849;-77
2022/06/06 12:27:59;;;;;;;2.13;0.65;;;23.70;62.70;;;;;;5052666;28;20279;-77
2022/06/06 12:30:50;;;;;;;2.05;0.77;;;23.70;83.00;;;;;;5053639;28;20198;-78
2022/06/06 12:33:20;;;;;;;1.85;0.60;;;24.10;74.80;;;;;;5055057;28;20278;-79
2022/06/06 12:35:53;;;;;;;2.45;0.80;;;24.60;66.90;;;;;;5053369;28;20287;-79
2022/06/06 12:38:37;;;;;;;2.28;0.80;;;25.00;69.70;;;;;;5057529;28;20334;-78
2022/06/06 12:41:23;;;;;;;1.75;0.65;;;25.00;58.10;;;;;;5050262;28;20653;-78
2022/06/06 12:43:59;;;;;;;2.28;0.60;;;25.10;56.80;;;;;;5055354;28;20357;-78
2022/06/06 12:47:08;;;;;;;2.40;0.80;;;25.50;50.70;;;;;;5061280;28;20264;-78
2022/06/06 12:50:05;;;;;;;2.25;0.70;;;23.90;59.10;;;;;;5050073;28;20252;-79
2022/06/06 12:53:02;;;;;;;1.95;0.85;;;23.10;85.30;;;;;;5047019;28;20623;-77
2022/06/06 12:55:40;;;;;;;2.35;0.80;;;23.00;85.00;;;;;;5047677;28;20335;-77
2022/06/06 12:58:30;;;;;;;2.92;0.50;;;22.80;84.20;;;;;;5062736;28;20238;-77
2022/06/06 13:04:01;;;;;;;2.47;0.82;;;22.10;95.50;;;;;;5051201;28;20238;-77
2022/06/06 13:06:39;;;;;;;2.42;0.80;;;21.40;99.90;;;;;;5054921;28;20719;-77
2022/06/06 13:09:32;;;;;;;2.17;0.80;;;21.50;99.90;;;;;;5049302;28;20283;-77
2022/06/06 13:12:13;;;;;;;3.85;0.98;;;21.50;99.90;;;;;;5050123;28;20278;-77
2022/06/06 13:15:03;;;;;;;1.45;1.00;;;21.10;99.90;;;;;;5051522;28;20312;-77
2022/06/06 13:17:48;;;;;;;3.90;1.05;;;21.40;99.90;;;;;;5049795;28;20318;-77
2022/06/06 13:20:23;;;;;;;3.15;1.00;;;21.30;99.90;;;;;;5075736;27;20212;-77
2022/06/06 13:23:06;;;;;;;1.27;0.80;;;21.20;99.90;;;;;;5115106;27;20275;-77
2022/06/06 13:25:44;;;;;;;2.13;1.00;;;21.20;99.90;;;;;;5121865;27;20272;-77
2022/06/06 13:28:21;;;;;;;3.42;0.85;;;21.20;99.90;;;;;;5116700;27;20481;-77
2022/06/06 13:31:07;;;;;;;2.83;0.70;;;21.50;99.90;;;;;;5112874;27;20232;-77
2022/06/06 13:34:01;;;;;;;1.70;0.90;;;21.70;99.90;;;;;;5112263;27;20306;-77
2022/06/06 13:36:47;;;;;;;2.03;0.70;;;21.70;99.90;;;;;;5111593;27;20277;-77
2022/06/06 13:39:26;;;;;;;2.55;0.95;;;22.00;99.90;;;;;;5114833;27;20281;-77
2022/06/06 13:42:04;;;;;;;1.88;0.90;;;22.30;99.90;;;;;;5115298;27;20231;-76
2022/06/06 13:45:03;;;;;;;1.48;0.70;;;21.80;99.90;;;;;;5112170;27;20460;-77
2022/06/06 13:48:01;;;;;;;2.55;0.65;;;21.80;99.90;;;;;;5099113;27;20320;-77
2022/06/06 13:50:36;;;;;;;4.40;1.00;;;21.90;99.90;;;;;;5110794;27;20202;-76
2022/06/06 13:53:33;;;;;;;2.45;0.80;;;21.50;99.90;;;;;;5114105;27;20295;-76
2022/06/06 13:56:16;;;;;;;1.63;1.00;;;21.40;99.90;;;;;;5115693;27;20277;-77
2022/06/06 13:58:52;;;;;;;1.27;0.68;;;21.60;99.90;;;;;;5110263;27;20736;-77
2022/06/06 14:01:41;;;;;;;1.83;0.80;;;22.00;99.90;;;;;;5110379;27;20245;-76
2022/06/06 14:04:37;;;;;;;1.33;0.70;;;22.00;99.90;;;;;;5107123;27;20289;-77
2022/06/06 14:07:22;;;;;;;2.72;0.70;;;22.00;99.90;;;;;;5105762;27;20252;-77
2022/06/06 14:09:49;;;;;;;3.60;0.65;;;22.20;99.90;;;;;;5109978;28;20280;-77
2022/06/06 14:12:26;;;;;;;1.00;0.63;;;22.40;99.90;;;;;;5111125;27;20604;-76
2022/06/06 14:15:05;;;;;;;1.63;0.85;;;22.80;99.90;;;;;;5121145;27;20198;-76
2022/06/06 14:17:36;;;;;;;2.60;0.60;;;22.50;99.90;;;;;;5124204;27;20248;-77
2022/06/06 14:20:12;;;;;;;1.13;0.65;;;23.10;99.90;;;;;;5106172;27;20644;-77
2022/06/06 14:22:40;;;;;;;0.90;0.50;;;23.90;99.90;;;;;;5116069;27;20738;-77